createdAt,value
2019-01-18T00:00:39.094Z,99.90
2019-01-18T00:03:08.144Z,99.90
2019-01-18T00:05:37.063Z,99.90
2019-01-18T00:08:06.459Z,99.90
2019-01-18T00:10:35.416Z,99.90
2019-01-18T00:13:04.411Z,99.90
2019-01-18T00:15:33.388Z,99.90
2019-01-18T00:18:02.326Z,99.90
2019-01-18T00:20:31.303Z,99.90
2019-01-18T00:23:00.099Z,99.90
2019-01-18T00:25:29.349Z,99.90
2019-01-18T00:27:58.635Z,99.90
2019-01-18T00:30:27.584Z,99.90
2019-01-18T00:32:56.442Z,99.90
2019-01-18T00:37:53.686Z,99.90
2019-01-18T00:40:23.087Z,99.90
2019-01-18T00:42:52.257Z,99.90
2019-01-18T00:45:21.244Z,99.90
2019-01-18T00:47:50.223Z,99.90
2019-01-18T00:50:19.483Z,99.90
2019-01-18T00:52:48.375Z,99.90
2019-01-18T00:55:17.349Z,99.90
2019-01-18T00:57:46.399Z,99.90
2019-01-18T01:00:18.389Z,99.90
2019-01-18T01:02:47.623Z,99.90
2019-01-18T01:05:17.303Z,99.90
2019-01-18T01:07:46.322Z,99.90
2019-01-18T01:10:15.301Z,99.90
2019-01-18T01:12:44.701Z,99.90
2019-01-18T01:15:15.743Z,99.90
2019-01-18T01:17:44.744Z,99.90
2019-01-18T01:20:15.760Z,99.90
2019-01-18T01:22:44.685Z,99.90
2019-01-18T01:25:13.770Z,99.90
2019-01-18T01:27:43.238Z,99.90
2019-01-18T01:30:16.887Z,99.90
2019-01-18T01:32:45.844Z,99.90
2019-01-18T01:35:15.274Z,99.90
2019-01-18T01:37:44.239Z,99.90
2019-01-18T01:40:15.951Z,99.90
2019-01-18T01:42:44.845Z,99.90
2019-01-18T01:45:14.123Z,99.90
2019-01-18T01:47:43.092Z,99.90
2019-01-18T01:50:14.461Z,99.90
2019-01-18T01:52:43.661Z,99.90
2019-01-18T01:55:12.700Z,99.90
2019-01-18T01:57:41.508Z,99.90
2019-01-18T02:00:18.626Z,99.90
2019-01-18T02:02:47.819Z,99.90
2019-01-18T02:05:17.004Z,99.90
2019-01-18T02:07:46.206Z,99.90
2019-01-18T02:10:16.232Z,99.90
2019-01-18T02:12:45.254Z,99.90
2019-01-18T02:15:18.910Z,99.90
2019-01-18T02:17:47.881Z,99.90
2019-01-18T02:20:18.975Z,99.90
2019-01-18T02:22:47.999Z,99.90
2019-01-18T02:25:16.937Z,99.90
2019-01-18T02:27:46.315Z,99.90
2019-01-18T02:30:26.923Z,99.90
2019-01-18T02:32:55.880Z,99.90
2019-01-18T02:35:24.747Z,99.90
2019-01-18T02:37:53.897Z,99.90
2019-01-18T02:40:23.184Z,99.90
2019-01-18T02:42:52.064Z,99.90
2019-01-18T02:45:22.319Z,99.90
2019-01-18T02:47:51.690Z,99.90
2019-01-18T02:50:20.812Z,99.90
2019-01-18T02:52:49.809Z,99.90
2019-01-18T02:55:19.173Z,99.90
2019-01-18T02:57:48.023Z,99.90
2019-01-18T03:00:23.948Z,99.90
2019-01-18T03:02:52.896Z,99.90
2019-01-18T03:05:24.265Z,99.90
2019-01-18T03:07:53.580Z,99.90
2019-01-18T03:10:24.910Z,99.90
2019-01-18T03:12:53.787Z,99.90
2019-01-18T03:15:23.145Z,99.90
2019-01-18T03:17:52.112Z,99.90
2019-01-18T03:20:21.082Z,99.90
2019-01-18T03:22:49.991Z,99.90
2019-01-18T03:25:24.315Z,99.90
2019-01-18T03:27:53.484Z,99.90
2019-01-18T03:30:22.343Z,99.90
2019-01-18T03:32:51.236Z,99.90
2019-01-18T03:35:21.203Z,99.90
2019-01-18T03:37:50.178Z,99.90
2019-01-18T03:40:19.375Z,99.90
2019-01-18T03:42:48.892Z,99.90
2019-01-18T03:45:18.869Z,99.90
2019-01-18T03:47:48.064Z,99.90
2019-01-18T03:50:26.060Z,99.90
2019-01-18T03:52:54.996Z,99.90
2019-01-18T03:55:24.159Z,99.90
2019-01-18T03:57:53.277Z,99.90
2019-01-18T04:00:26.165Z,99.90
2019-01-18T04:02:55.071Z,99.90
2019-01-18T04:05:24.192Z,99.90
2019-01-18T04:07:53.124Z,99.90
2019-01-18T04:10:22.110Z,99.90
2019-01-18T04:12:51.104Z,99.90
2019-01-18T04:15:21.039Z,99.90
2019-01-18T04:17:50.258Z,99.90
2019-01-18T04:20:19.239Z,99.90
2019-01-18T04:22:48.224Z,99.90
2019-01-18T04:25:22.704Z,99.90
2019-01-18T04:27:51.559Z,99.90
2019-01-18T04:30:21.505Z,99.90
2019-01-18T04:32:50.639Z,99.90
2019-01-18T04:35:19.709Z,99.90
2019-01-18T04:37:48.768Z,99.90
2019-01-18T04:40:19.809Z,99.90
2019-01-18T04:42:48.686Z,99.90
2019-01-18T04:45:17.630Z,99.90
2019-01-18T04:47:46.527Z,99.90
2019-01-18T04:50:17.167Z,99.90
2019-01-18T04:52:46.395Z,99.90
2019-01-18T04:55:15.661Z,99.90
2019-01-18T04:57:44.619Z,99.90
2019-01-18T05:00:21.959Z,99.90
2019-01-18T05:02:51.036Z,99.90
2019-01-18T05:05:19.969Z,99.90
2019-01-18T05:07:48.910Z,99.90
2019-01-18T05:10:18.852Z,99.90
2019-01-18T05:12:47.808Z,99.90
2019-01-18T05:15:27.705Z,99.90
2019-01-18T05:17:56.555Z,99.90
2019-01-18T05:20:25.844Z,99.90
2019-01-18T05:23:02.688Z,99.90
2019-01-18T05:25:31.515Z,99.90
2019-01-18T05:28:00.424Z,99.90
2019-01-18T05:30:30.187Z,99.90
2019-01-18T05:32:59.099Z,99.90
2019-01-18T05:35:28.401Z,99.90
2019-01-18T05:37:57.356Z,99.90
2019-01-18T05:40:27.045Z,99.90
2019-01-18T05:42:55.936Z,99.90
2019-01-18T05:45:25.058Z,99.90
2019-01-18T05:47:54.303Z,99.90
2019-01-18T05:50:25.551Z,99.90
2019-01-18T05:52:54.619Z,99.90
2019-01-18T05:55:23.500Z,99.90
2019-01-18T05:57:52.552Z,99.90
2019-01-18T06:00:38.775Z,99.90
2019-01-18T06:03:07.727Z,99.90
2019-01-18T06:05:39.134Z,99.90
2019-01-18T06:08:08.011Z,99.90
2019-01-18T06:10:36.949Z,99.90
2019-01-18T06:13:05.983Z,99.90
2019-01-18T06:15:34.823Z,99.90
2019-01-18T06:18:03.769Z,99.90
2019-01-18T06:20:33.068Z,99.90
2019-01-18T06:23:02.222Z,99.90
2019-01-18T06:25:31.402Z,99.90
2019-01-18T06:28:00.304Z,99.90
2019-01-18T06:30:29.434Z,99.90
2019-01-18T06:32:58.362Z,99.90
2019-01-18T06:35:27.456Z,99.90
2019-01-18T06:37:56.462Z,99.90
2019-01-18T06:40:25.375Z,99.90
2019-01-18T06:42:54.343Z,99.90
2019-01-18T06:45:23.628Z,99.90
2019-01-18T06:47:52.509Z,99.90
2019-01-18T06:50:21.722Z,99.90
2019-01-18T06:52:50.647Z,99.90
2019-01-18T06:55:19.606Z,99.90
2019-01-18T06:57:48.735Z,99.90
2019-01-18T07:00:20.436Z,99.90
2019-01-18T07:02:49.887Z,99.90
2019-01-18T07:05:18.795Z,99.90
2019-01-18T07:07:47.997Z,99.90
2019-01-18T07:10:20.869Z,99.90
2019-01-18T07:12:48.635Z,99.90
2019-01-18T07:15:17.660Z,99.90
2019-01-18T07:17:46.610Z,99.90
2019-01-18T07:20:16.523Z,99.90
2019-01-18T07:22:45.475Z,99.90
2019-01-18T07:25:28.478Z,99.90
2019-01-18T07:27:57.377Z,99.90
2019-01-18T07:30:38.363Z,99.90
2019-01-18T07:33:10.029Z,99.90
2019-01-18T07:35:39.312Z,99.90
2019-01-18T07:38:08.274Z,99.90
2019-01-18T07:40:37.156Z,99.90
2019-01-18T07:43:06.330Z,99.90
2019-01-18T07:45:35.464Z,99.90
2019-01-18T07:48:05.518Z,99.90
2019-01-18T07:50:35.416Z,99.90
2019-01-18T07:53:05.139Z,99.90
2019-01-18T07:55:34.089Z,99.90
2019-01-18T07:58:03.154Z,99.90
2019-01-18T08:00:32.607Z,99.90
2019-01-18T08:03:01.410Z,99.90
2019-01-18T08:05:31.676Z,99.90
2019-01-18T08:08:03.205Z,99.90
2019-01-18T08:10:32.163Z,99.90
2019-01-18T08:13:01.276Z,99.90
2019-01-18T08:15:30.792Z,99.90
2019-01-18T08:17:59.730Z,99.90
2019-01-18T08:20:30.156Z,99.90
2019-01-18T08:22:59.442Z,99.90
2019-01-18T08:25:28.330Z,99.90
2019-01-18T08:27:57.711Z,99.90
2019-01-18T08:30:28.351Z,99.90
2019-01-18T08:32:57.669Z,99.90
2019-01-18T08:35:27.145Z,99.90
2019-01-18T08:37:56.042Z,99.90
2019-01-18T08:40:39.271Z,99.90
2019-01-18T08:43:10.327Z,99.90
2019-01-18T08:45:51.178Z,99.90
2019-01-18T08:48:20.358Z,99.90
2019-01-18T08:50:49.401Z,99.90
2019-01-18T08:53:18.774Z,99.90
2019-01-18T08:55:47.740Z,99.90
2019-01-18T08:58:16.723Z,99.90
2019-01-18T09:00:45.600Z,99.90
2019-01-18T09:03:14.491Z,99.90
2019-01-18T09:05:43.961Z,99.90
2019-01-18T09:08:13.539Z,99.90
2019-01-18T09:10:42.756Z,99.90
2019-01-18T09:13:11.784Z,99.90
2019-01-18T09:15:41.526Z,99.90
2019-01-18T09:18:11.079Z,99.90
2019-01-18T09:20:40.747Z,99.90
2019-01-18T09:23:09.558Z,99.90
2019-01-18T09:25:38.434Z,99.90
2019-01-18T09:28:07.725Z,99.90
2019-01-18T09:30:36.770Z,99.90
2019-01-18T09:33:07.770Z,99.90
2019-01-18T09:35:37.392Z,99.90
2019-01-18T09:38:10.044Z,99.90
2019-01-18T09:40:39.009Z,99.90
2019-01-18T09:43:07.972Z,99.90
2019-01-18T09:45:37.136Z,99.90
2019-01-18T09:48:07.898Z,99.90
2019-01-18T09:50:36.804Z,99.90
2019-01-18T09:53:06.991Z,99.90
2019-01-18T09:55:36.240Z,98.90
2019-01-18T09:58:06.088Z,99.00
2019-01-18T10:00:37.047Z,99.30
2019-01-18T10:03:06.764Z,98.90
2019-01-18T10:05:35.750Z,97.30
2019-01-18T10:08:06.684Z,97.50
2019-01-18T10:10:35.573Z,96.50
2019-01-18T10:13:04.555Z,96.70
2019-01-18T10:15:41.511Z,97.30
2019-01-18T10:18:10.628Z,97.50
2019-01-18T10:20:39.510Z,97.20
2019-01-18T10:23:08.537Z,97.10
2019-01-18T10:25:37.392Z,97.90
2019-01-18T10:28:06.384Z,98.10
2019-01-18T10:30:35.500Z,99.10
2019-01-18T10:33:04.471Z,99.60
2019-01-18T10:35:33.456Z,99.90
2019-01-18T10:38:02.323Z,99.90
2019-01-18T10:40:32.379Z,99.80
2019-01-18T10:43:01.259Z,99.30
2019-01-18T10:45:30.049Z,98.20
2019-01-18T10:48:00.053Z,97.20
2019-01-18T10:50:31.019Z,97.60
2019-01-18T10:53:00.080Z,97.70
2019-01-18T10:55:29.590Z,97.30
2019-01-18T10:57:58.931Z,96.40
2019-01-18T11:00:34.096Z,95.80
2019-01-18T11:03:02.984Z,96.70
2019-01-18T11:05:31.878Z,96.40
2019-01-18T11:08:01.146Z,96.50
2019-01-18T11:10:30.013Z,96.20
2019-01-18T11:12:58.881Z,96.40
2019-01-18T11:15:31.017Z,96.40
2019-01-18T11:17:59.895Z,95.90
2019-01-18T11:20:55.902Z,93.00
2019-01-18T11:23:25.023Z,94.30
2019-01-18T11:25:53.902Z,93.40
2019-01-18T11:28:22.734Z,93.40
2019-01-18T11:30:51.884Z,91.30
2019-01-18T11:33:20.743Z,91.90
2019-01-18T11:35:49.652Z,93.30
2019-01-18T11:38:18.552Z,93.70
2019-01-18T11:40:47.519Z,93.50
2019-01-18T11:43:16.427Z,89.40
2019-01-18T11:45:45.231Z,84.50
2019-01-18T11:48:14.201Z,85.70
2019-01-18T11:50:43.412Z,87.70
2019-01-18T11:53:13.074Z,83.40
2019-01-18T11:55:41.879Z,79.60
2019-01-18T11:58:10.803Z,80.00
2019-01-18T12:00:39.677Z,80.80
2019-01-18T12:03:08.585Z,74.70
2019-01-18T12:05:38.012Z,74.10
2019-01-18T12:08:07.170Z,73.00
2019-01-18T12:10:36.074Z,78.20
2019-01-18T12:13:05.330Z,84.90
2019-01-18T12:15:34.380Z,85.90
2019-01-18T12:18:03.365Z,81.30
2019-01-18T12:20:35.142Z,80.60
2019-01-18T12:23:04.322Z,80.30
2019-01-18T12:25:33.699Z,84.60
2019-01-18T12:28:02.898Z,84.70
2019-01-18T12:30:34.195Z,86.00
2019-01-18T12:33:03.631Z,88.60
2019-01-18T12:35:32.610Z,89.30
2019-01-18T12:38:01.856Z,86.60
2019-01-18T12:40:31.014Z,85.00
2019-01-18T12:42:59.982Z,86.60
2019-01-18T12:45:28.947Z,81.80
2019-01-18T12:47:58.268Z,80.20
2019-01-18T12:50:35.567Z,76.50
2019-01-18T12:53:04.986Z,78.40
2019-01-18T12:55:34.087Z,78.70
2019-01-18T12:58:02.998Z,80.70
2019-01-18T13:00:32.005Z,77.50
2019-01-18T13:03:01.194Z,70.50
2019-01-18T13:05:33.294Z,69.70
2019-01-18T13:08:02.498Z,70.40
2019-01-18T13:10:31.382Z,68.50
2019-01-18T13:13:00.355Z,63.00
2019-01-18T13:15:38.623Z,68.30
2019-01-18T13:18:07.773Z,70.40
2019-01-18T13:20:36.798Z,68.50
2019-01-18T13:23:05.860Z,68.20
2019-01-18T13:25:35.191Z,64.90
2019-01-18T13:28:04.474Z,64.30
2019-01-18T13:30:33.365Z,62.60
2019-01-18T13:33:02.284Z,62.80
2019-01-18T13:35:31.683Z,64.20
2019-01-18T13:38:00.531Z,65.90
2019-01-18T13:40:29.406Z,68.20
2019-01-18T13:42:58.810Z,70.20
2019-01-18T13:45:27.679Z,72.40
2019-01-18T13:47:57.100Z,69.80
2019-01-18T13:50:26.055Z,71.20
2019-01-18T13:52:54.959Z,63.80
2019-01-18T13:55:25.335Z,62.80
2019-01-18T13:57:54.768Z,64.20
2019-01-18T14:00:23.706Z,65.40
2019-01-18T14:02:52.610Z,68.00
2019-01-18T14:05:21.570Z,66.60
2019-01-18T14:07:53.391Z,67.90
2019-01-18T14:10:23.775Z,69.50
2019-01-18T14:12:52.834Z,70.20
2019-01-18T14:15:22.615Z,68.50
2019-01-18T14:17:51.947Z,70.70
2019-01-18T14:20:21.497Z,71.20
2019-01-18T14:22:51.031Z,73.10
2019-01-18T14:25:20.732Z,73.60
2019-01-18T14:27:50.289Z,72.00
2019-01-18T14:30:21.817Z,75.10
2019-01-18T14:32:55.328Z,73.10
2019-01-18T14:35:21.914Z,74.60
2019-01-18T14:37:50.897Z,74.10
2019-01-18T14:40:19.955Z,70.00
2019-01-18T14:42:49.395Z,71.30
2019-01-18T14:45:26.834Z,71.80
2019-01-18T14:47:56.131Z,73.10
2019-01-18T14:50:25.615Z,74.30
2019-01-18T14:52:54.722Z,75.90
2019-01-18T14:55:25.312Z,74.90
2019-01-18T14:57:54.284Z,76.10
2019-01-18T15:00:30.285Z,74.10
2019-01-18T15:03:02.369Z,72.00
2019-01-18T15:05:29.854Z,72.30
2019-01-18T15:07:58.847Z,75.00
2019-01-18T15:10:27.729Z,74.70
2019-01-18T15:13:02.244Z,75.90
2019-01-18T15:15:31.539Z,77.60
2019-01-18T15:18:00.439Z,77.70
2019-01-18T15:20:31.236Z,77.70
2019-01-18T15:23:00.292Z,77.90
2019-01-18T15:25:29.240Z,77.10
2019-01-18T15:27:58.458Z,78.10
2019-01-18T15:30:28.840Z,77.50
2019-01-18T15:32:57.846Z,77.70
2019-01-18T15:35:40.900Z,77.40
2019-01-18T15:38:11.147Z,77.90
2019-01-18T15:40:44.206Z,77.50
2019-01-18T15:43:14.934Z,89.60
2019-01-18T15:45:43.905Z,94.00
2019-01-18T15:48:12.947Z,94.40
2019-01-18T15:50:42.189Z,95.80
2019-01-18T15:53:11.275Z,96.60
2019-01-18T15:55:40.217Z,97.50
2019-01-18T15:58:09.502Z,97.80
2019-01-18T16:00:40.447Z,98.40
2019-01-18T16:03:15.651Z,98.90
2019-01-18T16:05:40.099Z,99.10
2019-01-18T16:08:10.186Z,99.60
2019-01-18T16:10:39.041Z,99.80
2019-01-18T16:13:09.645Z,99.90
2019-01-18T16:15:42.564Z,99.90
2019-01-18T16:18:12.981Z,99.90
2019-01-18T16:20:41.869Z,99.90
2019-01-18T16:23:10.782Z,99.90
2019-01-18T16:25:39.627Z,99.90
2019-01-18T16:28:08.687Z,99.90
2019-01-18T16:30:37.509Z,99.90
2019-01-18T16:33:06.692Z,99.90
2019-01-18T16:35:35.598Z,99.90
2019-01-18T16:38:08.139Z,99.90
2019-01-18T16:40:37.120Z,99.90
2019-01-18T16:43:19.086Z,99.90
2019-01-18T16:45:48.190Z,99.90
2019-01-18T16:48:17.133Z,99.90
2019-01-18T16:50:46.251Z,99.90
2019-01-18T16:53:15.246Z,99.90
2019-01-18T16:55:44.390Z,99.90
2019-01-18T16:58:13.248Z,99.90
2019-01-18T17:00:43.194Z,99.90
2019-01-18T17:03:12.020Z,99.90
2019-01-18T17:05:40.891Z,99.90
2019-01-18T17:08:11.326Z,99.90
2019-01-18T17:10:40.244Z,99.90
2019-01-18T17:13:09.206Z,99.90
2019-01-18T17:15:38.112Z,99.90
2019-01-18T17:18:07.176Z,99.90
2019-01-18T17:20:38.997Z,99.90
2019-01-18T17:23:07.931Z,99.90
2019-01-18T17:25:36.952Z,99.90
2019-01-18T17:28:06.179Z,99.90
2019-01-18T17:30:35.962Z,99.90
2019-01-18T17:33:05.658Z,99.90
2019-01-18T17:35:54.663Z,99.90
2019-01-18T17:39:01.780Z,99.90
2019-01-18T17:42:30.197Z,99.90
2019-01-18T17:45:38.306Z,99.90
2019-01-18T17:48:50.072Z,99.90
2019-01-18T17:51:50.198Z,99.90
2019-01-18T17:55:11.663Z,99.90
2019-01-18T17:58:08.344Z,99.90
2019-01-18T18:01:00.460Z,99.90
2019-01-18T18:04:22.177Z,99.90
2019-01-18T18:07:35.315Z,99.90
2019-01-18T18:10:23.580Z,99.90
2019-01-18T18:13:25.049Z,99.90
2019-01-18T18:16:39.800Z,99.90
2019-01-18T18:19:29.534Z,99.90
2019-01-18T18:22:29.450Z,99.90
2019-01-18T18:25:31.006Z,99.90
2019-01-18T18:28:29.843Z,99.90
2019-01-18T18:31:20.345Z,99.90
2019-01-18T18:34:38.637Z,99.90
2019-01-18T18:37:44.906Z,99.90
2019-01-18T18:40:57.476Z,99.90
2019-01-18T18:43:55.926Z,99.90
2019-01-18T18:46:52.086Z,99.90
2019-01-18T18:49:46.163Z,99.90
2019-01-18T18:52:53.767Z,99.90
2019-01-18T18:55:55.673Z,99.90
2019-01-18T18:58:46.906Z,99.90
2019-01-18T19:01:48.139Z,99.90
2019-01-18T19:04:46.690Z,99.90
2019-01-18T19:07:48.764Z,99.90
2019-01-18T19:10:57.690Z,99.90
2019-01-18T19:14:11.140Z,99.90
2019-01-18T19:17:30.340Z,99.90
2019-01-18T19:20:33.912Z,99.90
2019-01-18T19:23:14.622Z,99.90
2019-01-18T19:26:12.491Z,99.90
2019-01-18T19:29:22.470Z,99.90
2019-01-18T19:32:44.896Z,99.90
2019-01-18T19:35:39.046Z,99.90
2019-01-18T19:39:16.806Z,99.90
2019-01-18T19:42:13.704Z,99.90
2019-01-18T19:45:03.643Z,99.90
2019-01-18T19:47:39.638Z,99.90
2019-01-18T19:50:46.136Z,99.90
2019-01-18T19:53:52.332Z,99.90
2019-01-18T19:56:57.580Z,99.90
2019-01-18T19:59:42.015Z,99.90
2019-01-18T20:02:52.226Z,99.90
2019-01-18T20:05:50.547Z,99.90
2019-01-18T20:08:40.561Z,99.90
2019-01-18T20:12:03.058Z,99.90
2019-01-18T20:15:01.703Z,99.90
2019-01-18T20:18:16.333Z,99.90
2019-01-18T20:21:44.676Z,99.90
2019-01-18T20:24:54.136Z,99.90
2019-01-18T20:27:55.005Z,99.90
2019-01-18T20:30:57.634Z,99.90
2019-01-18T20:33:47.669Z,99.90
2019-01-18T20:36:47.024Z,99.90
2019-01-18T20:39:26.219Z,99.90
2019-01-18T20:42:28.355Z,99.90
2019-01-18T20:45:41.127Z,99.90
2019-01-18T20:48:46.560Z,99.90
2019-01-18T20:51:40.643Z,99.90
2019-01-18T20:54:50.362Z,99.90
2019-01-18T20:58:03.748Z,99.90
2019-01-18T21:00:42.929Z,99.90
2019-01-18T21:03:47.051Z,99.90
2019-01-18T21:06:46.476Z,99.90
2019-01-18T21:09:43.702Z,99.90
2019-01-18T21:13:11.835Z,99.90
2019-01-18T21:16:11.027Z,99.90
2019-01-18T21:19:33.390Z,99.90
2019-01-18T21:22:31.620Z,99.90
2019-01-18T21:25:33.316Z,99.90
2019-01-18T21:28:57.084Z,99.90
2019-01-18T21:31:50.161Z,99.90
2019-01-18T21:34:52.875Z,99.90
2019-01-18T21:38:16.344Z,99.90
2019-01-18T21:41:22.459Z,99.90
2019-01-18T21:44:12.855Z,99.90
2019-01-18T21:47:09.221Z,99.90
2019-01-18T21:49:53.179Z,99.90
2019-01-18T21:53:04.592Z,99.90
2019-01-18T21:56:13.934Z,99.90
2019-01-18T21:59:17.139Z,99.90
2019-01-18T22:02:00.400Z,99.90
2019-01-18T22:05:28.959Z,99.90
2019-01-18T22:08:40.720Z,99.90
2019-01-18T22:11:29.173Z,99.90
2019-01-18T22:14:15.706Z,99.90
2019-01-18T22:17:12.629Z,99.90
2019-01-18T22:20:11.637Z,99.90
2019-01-18T22:23:01.714Z,99.90
2019-01-18T22:26:18.024Z,99.90
2019-01-18T22:28:56.525Z,99.90
2019-01-18T22:31:50.288Z,99.90
2019-01-18T22:34:40.222Z,99.90
2019-01-18T22:37:30.189Z,99.90
2019-01-18T22:40:27.702Z,99.90
2019-01-18T22:43:23.066Z,99.90
2019-01-18T22:46:07.828Z,99.90
2019-01-18T22:49:26.190Z,99.90
2019-01-18T22:52:32.969Z,99.90
2019-01-18T22:55:48.378Z,99.90
2019-01-18T22:58:52.767Z,99.90
2019-01-18T23:01:58.713Z,99.90
2019-01-18T23:04:43.813Z,99.90
2019-01-18T23:07:41.323Z,99.90
2019-01-18T23:10:59.166Z,99.90
2019-01-18T23:14:14.171Z,99.90
2019-01-18T23:17:26.127Z,99.90
2019-01-18T23:20:54.719Z,99.90
2019-01-18T23:23:49.106Z,99.90
2019-01-18T23:27:05.793Z,99.90
2019-01-18T23:29:59.087Z,99.90
2019-01-18T23:32:54.839Z,99.90
2019-01-18T23:36:03.534Z,99.90
2019-01-18T23:39:28.483Z,99.90
2019-01-18T23:42:44.463Z,99.90
2019-01-18T23:45:54.264Z,99.90
2019-01-18T23:49:04.796Z,99.90
2019-01-18T23:52:04.898Z,99.90
2019-01-18T23:55:09.695Z,99.90
2019-01-18T23:58:20.076Z,99.90
